createdAt,value
2022-11-14T00:01:14.174Z,5.95
2022-11-14T00:03:41.565Z,9.13
2022-11-14T00:06:09.310Z,5.20
2022-11-14T00:08:36.808Z,8.57
2022-11-14T00:11:04.555Z,7.10
2022-11-14T00:13:31.945Z,6.85
2022-11-14T00:15:59.423Z,6.53
2022-11-14T00:18:27.215Z,11.48
2022-11-14T00:20:54.820Z,8.63
2022-11-14T00:23:22.688Z,10.25
2022-11-14T00:25:50.285Z,14.15
2022-11-14T00:28:17.731Z,12.40
2022-11-14T00:30:49.018Z,9.63
2022-11-14T00:33:20.408Z,8.93
2022-11-14T00:35:53.198Z,10.50
2022-11-14T00:38:20.822Z,12.30
2022-11-14T00:40:48.429Z,10.43
2022-11-14T00:43:15.941Z,12.20
2022-11-14T00:45:45.144Z,10.13
2022-11-14T00:48:12.526Z,12.25
2022-11-14T00:50:40.329Z,13.35
2022-11-14T00:53:07.748Z,10.80
2022-11-14T00:55:35.341Z,11.52
2022-11-14T00:58:02.778Z,15.15
2022-11-14T01:00:30.297Z,14.30
2022-11-14T01:02:58.508Z,13.35
2022-11-14T01:05:27.312Z,14.93
2022-11-14T01:07:55.460Z,14.40
2022-11-14T01:10:22.979Z,15.15
2022-11-14T01:12:50.567Z,14.65
2022-11-14T01:15:18.119Z,13.30
2022-11-14T01:17:45.517Z,9.45
2022-11-14T01:20:13.082Z,8.77
2022-11-14T01:22:40.505Z,14.25
2022-11-14T01:25:08.359Z,11.93
2022-11-14T01:27:35.869Z,13.32
2022-11-14T01:30:04.404Z,13.07
2022-11-14T01:32:31.935Z,10.98
2022-11-14T01:34:59.358Z,10.75
2022-11-14T01:37:26.730Z,13.48
2022-11-14T01:39:54.285Z,12.95
2022-11-14T01:42:24.496Z,15.57
2022-11-14T01:44:54.583Z,14.77
2022-11-14T01:47:27.309Z,14.38
2022-11-14T01:49:58.348Z,14.43
2022-11-14T01:54:55.529Z,18.50
2022-11-14T01:57:32.580Z,16.13
2022-11-14T02:00:04.314Z,13.23
2022-11-14T02:02:31.866Z,14.48
2022-11-14T02:05:18.796Z,12.85
2022-11-14T02:07:46.173Z,17.38
2022-11-14T02:10:19.551Z,19.17
2022-11-14T02:12:47.433Z,18.70
2022-11-14T02:15:15.328Z,20.20
2022-11-14T02:17:44.089Z,19.20
2022-11-14T02:20:11.895Z,17.02
2022-11-14T02:22:41.497Z,18.00
2022-11-14T02:25:10.782Z,21.38
2022-11-14T02:27:39.598Z,19.77
2022-11-14T02:30:17.376Z,18.63
2022-11-14T02:35:32.346Z,19.35
2022-11-14T02:37:59.746Z,17.95
2022-11-14T02:40:27.108Z,21.40
2022-11-14T02:42:54.539Z,15.80
2022-11-14T02:45:22.090Z,14.65
2022-11-14T02:47:49.498Z,18.65
2022-11-14T02:50:17.619Z,12.20
2022-11-14T02:52:45.115Z,13.75
2022-11-14T02:55:13.145Z,15.18
2022-11-14T02:57:40.500Z,12.77
2022-11-14T03:00:14.409Z,12.05
2022-11-14T03:02:42.491Z,14.57
2022-11-14T03:05:10.546Z,15.18
2022-11-14T03:07:38.305Z,15.73
2022-11-14T03:10:06.553Z,13.00
2022-11-14T03:12:33.952Z,12.10
2022-11-14T03:15:01.343Z,13.82
2022-11-14T03:17:32.328Z,16.25
2022-11-14T03:19:59.837Z,10.52
2022-11-14T03:22:28.156Z,11.10
2022-11-14T03:24:55.571Z,9.63
2022-11-14T03:27:23.215Z,8.43
2022-11-14T03:29:50.645Z,9.00
2022-11-14T03:32:18.449Z,11.07
2022-11-14T03:34:45.877Z,10.60
2022-11-14T03:37:13.387Z,8.27
2022-11-14T03:39:40.796Z,10.00
2022-11-14T03:42:08.345Z,12.60
2022-11-14T03:44:35.757Z,8.05
2022-11-14T03:47:03.349Z,9.77
2022-11-14T03:49:30.833Z,9.57
2022-11-14T03:51:58.235Z,8.93
2022-11-14T03:54:25.686Z,7.53
2022-11-14T03:56:53.206Z,9.07
2022-11-14T03:59:20.687Z,7.60
2022-11-14T04:01:49.150Z,7.88
2022-11-14T04:04:16.644Z,10.00
2022-11-14T04:06:44.648Z,7.13
2022-11-14T04:09:12.370Z,10.95
2022-11-14T04:11:39.710Z,7.82
2022-11-14T04:14:07.087Z,6.80
2022-11-14T04:16:34.425Z,9.52
2022-11-14T04:19:01.826Z,7.32
2022-11-14T04:21:29.222Z,6.75
2022-11-14T04:23:56.605Z,6.00
2022-11-14T04:26:24.034Z,5.40
2022-11-14T04:28:51.386Z,5.70
2022-11-14T04:31:18.749Z,6.82
2022-11-14T04:33:46.181Z,9.90
2022-11-14T04:36:13.608Z,7.88
2022-11-14T04:38:41.134Z,5.32
2022-11-14T04:41:08.636Z,6.30
2022-11-14T04:43:36.112Z,6.57
2022-11-14T04:46:03.527Z,6.95
2022-11-14T04:48:31.308Z,7.75
2022-11-14T04:50:58.866Z,7.20
2022-11-14T04:53:26.233Z,7.68
2022-11-14T04:55:53.597Z,8.18
2022-11-14T04:58:20.966Z,9.00
2022-11-14T05:00:48.323Z,10.02
2022-11-14T05:03:15.867Z,9.25
2022-11-14T05:05:43.313Z,12.50
2022-11-14T05:08:10.753Z,16.77
2022-11-14T05:10:38.137Z,9.55
2022-11-14T05:13:05.604Z,9.07
2022-11-14T05:15:33.071Z,15.82
2022-11-14T05:18:00.483Z,8.60
2022-11-14T05:20:27.974Z,12.18
2022-11-14T05:22:56.496Z,10.95
2022-11-14T05:25:24.049Z,13.43
2022-11-14T05:27:51.484Z,9.93
2022-11-14T05:30:19.023Z,10.43
2022-11-14T05:32:46.460Z,9.15
2022-11-14T05:35:13.948Z,11.02
2022-11-14T05:37:41.306Z,10.35
2022-11-14T05:40:09.262Z,12.82
2022-11-14T05:42:37.036Z,11.63
2022-11-14T05:45:04.871Z,11.95
2022-11-14T05:47:32.337Z,27.13
2022-11-14T05:49:59.692Z,24.35
2022-11-14T05:52:27.049Z,15.38
2022-11-14T05:54:54.443Z,22.42
2022-11-14T05:57:21.866Z,16.90
2022-11-14T05:59:49.346Z,18.75
2022-11-14T06:02:16.827Z,17.42
2022-11-14T06:04:44.299Z,10.77
2022-11-14T06:07:15.120Z,11.52
2022-11-14T06:09:44.910Z,12.45
2022-11-14T06:12:12.323Z,10.98
2022-11-14T06:14:39.956Z,11.15
2022-11-14T06:17:07.363Z,12.27
2022-11-14T06:19:34.983Z,13.98
2022-11-14T06:22:02.485Z,12.30
2022-11-14T06:24:29.930Z,10.57
2022-11-14T06:26:57.320Z,12.35
2022-11-14T06:29:24.725Z,9.82
2022-11-14T06:31:52.241Z,13.93
2022-11-14T06:34:19.796Z,13.25
2022-11-14T06:36:47.441Z,11.75
2022-11-14T06:39:15.210Z,12.73
2022-11-14T06:41:42.641Z,12.40
2022-11-14T06:44:10.295Z,10.57
2022-11-14T06:46:37.788Z,9.50
2022-11-14T06:49:05.332Z,15.02
2022-11-14T06:51:32.792Z,13.57
2022-11-14T06:54:00.298Z,13.63
2022-11-14T06:56:27.694Z,13.35
2022-11-14T06:58:55.609Z,13.13
2022-11-14T07:01:26.178Z,13.70
2022-11-14T07:03:53.979Z,19.17
2022-11-14T07:06:24.396Z,15.90
2022-11-14T07:08:53.577Z,18.83
2022-11-14T07:11:35.011Z,14.65
2022-11-14T07:14:04.011Z,13.70
2022-11-14T07:16:35.505Z,13.18
2022-11-14T07:19:05.404Z,14.88
2022-11-14T07:21:34.987Z,17.80
2022-11-14T07:24:02.412Z,14.48
2022-11-14T07:26:30.065Z,15.05
2022-11-14T07:29:02.072Z,15.10
2022-11-14T07:31:30.438Z,16.85
2022-11-14T07:33:57.925Z,20.17
2022-11-14T07:36:25.324Z,20.38
2022-11-14T07:38:52.767Z,19.02
2022-11-14T07:41:20.285Z,16.17
2022-11-14T07:43:47.768Z,17.70
2022-11-14T07:46:17.334Z,15.75
2022-11-14T07:48:45.521Z,15.68
2022-11-14T07:51:20.521Z,21.38
2022-11-14T07:53:48.428Z,14.25
2022-11-14T07:56:17.257Z,12.23
2022-11-14T07:58:44.695Z,12.35
2022-11-14T08:01:13.743Z,12.55
2022-11-14T08:03:45.578Z,14.75
2022-11-14T08:06:17.321Z,12.65
2022-11-14T08:11:12.400Z,11.60
2022-11-14T08:13:39.929Z,17.15
2022-11-14T08:16:13.503Z,18.00
2022-11-14T08:18:41.754Z,19.23
2022-11-14T08:21:09.204Z,19.08
2022-11-14T08:23:36.792Z,21.88
2022-11-14T08:26:04.227Z,15.18
2022-11-14T08:28:31.957Z,13.07
2022-11-14T08:31:04.682Z,13.77
2022-11-14T08:33:32.338Z,14.35
2022-11-14T08:36:03.303Z,12.13
2022-11-14T08:38:34.378Z,14.07
2022-11-14T08:43:30.075Z,15.43
2022-11-14T08:46:01.644Z,18.23
2022-11-14T08:48:30.884Z,15.48
2022-11-14T08:51:03.601Z,15.20
2022-11-14T08:53:31.456Z,21.77
2022-11-14T08:55:58.816Z,19.58
2022-11-14T08:58:30.575Z,17.20
2022-11-14T09:01:03.306Z,17.27
2022-11-14T09:03:31.004Z,15.45
2022-11-14T09:05:58.657Z,18.85
2022-11-14T09:08:26.425Z,19.00
2022-11-14T09:10:53.941Z,19.40
2022-11-14T09:13:22.381Z,19.80
2022-11-14T09:15:49.746Z,18.55
2022-11-14T09:18:17.271Z,21.70
2022-11-14T09:20:44.695Z,20.42
2022-11-14T09:23:12.344Z,21.27
2022-11-14T09:25:39.927Z,23.67
2022-11-14T09:28:09.098Z,22.33
2022-11-14T09:30:37.549Z,25.13
2022-11-14T09:33:11.102Z,22.70
2022-11-14T09:35:39.135Z,25.25
2022-11-14T09:38:10.301Z,22.35
2022-11-14T09:40:52.440Z,24.92
2022-11-14T09:43:39.332Z,24.88
2022-11-14T09:46:21.676Z,27.48
2022-11-14T09:48:49.939Z,18.75
2022-11-14T09:51:22.580Z,20.95
2022-11-14T09:54:24.397Z,24.17
2022-11-14T09:56:52.357Z,20.25
2022-11-14T09:59:20.146Z,23.85
2022-11-14T10:02:01.272Z,25.70
2022-11-14T10:05:06.536Z,31.98
2022-11-14T10:07:42.831Z,27.60
2022-11-14T10:10:38.525Z,28.35
2022-11-14T10:13:29.470Z,28.90
2022-11-14T10:16:24.972Z,25.63
2022-11-14T10:19:10.506Z,23.10
2022-11-14T10:21:53.964Z,23.45
2022-11-14T10:24:51.264Z,20.50
2022-11-14T10:27:28.926Z,19.73
2022-11-14T10:30:12.209Z,17.65
2022-11-14T10:33:03.643Z,22.33
2022-11-14T10:35:48.158Z,20.25
2022-11-14T10:38:26.443Z,20.50
2022-11-14T10:40:58.399Z,23.58
2022-11-14T10:43:37.018Z,21.42
2022-11-14T10:46:19.485Z,20.20
2022-11-14T10:48:49.751Z,19.15
2022-11-14T10:51:22.426Z,19.27
2022-11-14T10:54:02.578Z,19.27
2022-11-14T10:56:30.372Z,23.48
2022-11-14T10:58:57.884Z,18.15
2022-11-14T11:01:35.702Z,19.40
2022-11-14T11:04:27.856Z,24.20
2022-11-14T11:07:37.976Z,24.48
2022-11-14T11:10:24.642Z,23.25
2022-11-14T11:12:54.974Z,23.08
2022-11-14T11:15:24.132Z,22.17
2022-11-14T11:18:02.749Z,19.27
2022-11-14T11:20:37.650Z,20.52
2022-11-14T11:23:11.182Z,18.85
2022-11-14T11:25:40.283Z,18.52
2022-11-14T11:28:11.696Z,19.90
2022-11-14T11:30:39.914Z,17.17
2022-11-14T11:33:38.690Z,19.42
2022-11-14T11:36:13.750Z,18.23
2022-11-14T11:38:42.163Z,22.23
2022-11-14T11:42:06.130Z,15.00
2022-11-14T11:44:17.254Z,13.52
2022-11-14T11:46:44.908Z,18.08
2022-11-14T11:49:19.348Z,15.82
2022-11-14T11:51:47.448Z,13.93
2022-11-14T11:54:21.988Z,18.13
2022-11-14T11:56:55.859Z,12.40
2022-11-14T11:59:39.137Z,8.80
2022-11-14T12:02:33.045Z,12.23
2022-11-14T12:05:01.623Z,8.80
2022-11-14T12:07:43.056Z,8.82
2022-11-14T12:10:17.555Z,8.43
2022-11-14T12:12:44.875Z,9.75
2022-11-14T12:15:33.077Z,9.50
2022-11-14T12:18:21.034Z,9.73
2022-11-14T12:21:09.239Z,8.93
2022-11-14T12:24:04.024Z,11.80
2022-11-14T12:26:50.165Z,8.48
2022-11-14T12:29:33.740Z,8.73
2022-11-14T12:32:13.108Z,9.60
2022-11-14T12:34:45.605Z,10.43
2022-11-14T12:37:33.187Z,9.43
2022-11-14T12:40:35.499Z,8.18
2022-11-14T12:43:04.103Z,7.47
2022-11-14T12:45:40.866Z,7.25
2022-11-14T12:48:30.985Z,9.65
2022-11-14T12:50:59.798Z,6.10
2022-11-14T12:53:36.034Z,7.13
2022-11-14T12:56:03.431Z,8.40
2022-11-14T12:58:49.179Z,29.85
2022-11-14T13:01:26.078Z,14.30
2022-11-14T13:04:11.882Z,24.17
2022-11-14T13:06:45.235Z,8.50
2022-11-14T13:09:24.612Z,8.85
2022-11-14T13:12:10.513Z,8.95
2022-11-14T13:15:10.858Z,7.28
2022-11-14T13:17:57.106Z,8.95
2022-11-14T13:20:52.720Z,7.82
2022-11-14T13:23:27.748Z,8.23
2022-11-14T13:26:10.753Z,10.98
2022-11-14T13:28:38.159Z,8.48
2022-11-14T13:31:06.600Z,10.68
2022-11-14T13:33:50.876Z,11.15
2022-11-14T13:36:40.345Z,9.60
2022-11-14T13:39:29.372Z,10.45
2022-11-14T13:42:29.674Z,12.80
2022-11-14T13:45:38.183Z,9.50
2022-11-14T13:48:47.355Z,11.75
2022-11-14T13:54:18.189Z,13.90
2022-11-14T13:57:01.600Z,13.55
2022-11-14T14:00:19.696Z,9.88
2022-11-14T14:02:56.992Z,10.70
2022-11-14T14:05:45.096Z,11.02
2022-11-14T14:08:42.076Z,14.90
2022-11-14T14:11:10.262Z,19.63
2022-11-14T14:13:52.455Z,17.05
2022-11-14T14:16:40.331Z,22.45
2022-11-14T14:19:33.113Z,22.02
2022-11-14T14:22:08.840Z,30.95
2022-11-14T14:25:09.490Z,18.70
2022-11-14T14:28:03.068Z,16.00
2022-11-14T14:30:30.566Z,18.75
2022-11-14T14:33:13.627Z,21.00
2022-11-14T14:35:51.789Z,17.40
2022-11-14T14:38:26.808Z,14.40
2022-11-14T14:40:56.101Z,13.13
2022-11-14T14:43:32.779Z,15.00
2022-11-14T14:46:00.908Z,12.63
2022-11-14T14:48:31.900Z,18.33
2022-11-14T14:51:00.663Z,14.18
2022-11-14T14:53:30.592Z,11.40
2022-11-14T14:56:03.194Z,7.63
2022-11-14T14:58:33.706Z,9.95
2022-11-14T15:01:09.887Z,12.70
2022-11-14T15:03:40.955Z,17.02
2022-11-14T15:09:07.792Z,14.63
2022-11-14T15:11:36.604Z,15.47
2022-11-14T15:14:04.438Z,20.52
2022-11-14T15:16:33.182Z,36.60
2022-11-14T15:19:01.292Z,56.75
2022-11-14T15:21:29.882Z,60.22
2022-11-14T15:24:13.710Z,63.53
2022-11-14T15:26:46.556Z,44.60
2022-11-14T15:29:18.473Z,49.00
2022-11-14T15:31:59.099Z,49.40
2022-11-14T15:34:40.643Z,34.08
2022-11-14T15:37:18.896Z,41.08
2022-11-14T15:39:47.564Z,33.10
2022-11-14T15:42:27.168Z,60.03
2022-11-14T15:44:55.652Z,142.07
2022-11-14T15:47:28.737Z,90.60
2022-11-14T15:50:32.693Z,84.55
2022-11-14T15:53:28.197Z,59.85
2022-11-14T15:55:55.778Z,42.42
2022-11-14T15:58:30.394Z,66.25
2022-11-14T16:00:58.732Z,60.72
2022-11-14T16:03:26.121Z,58.40
2022-11-14T16:05:53.515Z,55.25
2022-11-14T16:08:21.307Z,47.25
2022-11-14T16:10:48.660Z,55.38
2022-11-14T16:13:16.034Z,48.80
2022-11-14T16:15:43.524Z,54.83
2022-11-14T16:18:11.763Z,61.40
2022-11-14T16:20:39.798Z,57.22
2022-11-14T16:23:07.126Z,51.35
2022-11-14T16:25:34.680Z,51.78
2022-11-14T16:28:02.148Z,66.07
2022-11-14T16:30:29.612Z,70.07
2022-11-14T16:32:57.064Z,82.78
2022-11-14T16:35:26.869Z,85.82
2022-11-14T16:37:57.096Z,114.07
2022-11-14T16:40:29.793Z,121.30
2022-11-14T16:42:59.309Z,101.47
2022-11-14T16:45:27.141Z,94.93
2022-11-14T16:47:54.538Z,116.00
2022-11-14T16:50:22.208Z,115.30
2022-11-14T16:52:49.604Z,97.93
2022-11-14T16:55:17.394Z,89.43
2022-11-14T16:57:44.869Z,84.25
2022-11-14T17:00:13.540Z,85.95
2022-11-14T17:02:41.453Z,89.00
2022-11-14T17:05:08.980Z,89.32
2022-11-14T17:07:36.483Z,94.03
2022-11-14T17:10:05.053Z,92.38
2022-11-14T17:12:33.672Z,93.78
2022-11-14T17:15:01.107Z,95.90
2022-11-14T17:17:28.541Z,86.22
2022-11-14T17:19:55.962Z,93.18
2022-11-14T17:22:23.331Z,90.20
2022-11-14T17:24:50.734Z,90.00
2022-11-14T17:27:18.119Z,86.18
2022-11-14T17:29:46.731Z,106.25
2022-11-14T17:32:14.163Z,120.47
2022-11-14T17:34:41.549Z,112.00
2022-11-14T17:37:08.902Z,108.97
2022-11-14T17:39:36.256Z,116.38
2022-11-14T17:42:03.706Z,104.50
2022-11-14T17:44:31.067Z,95.32
2022-11-14T17:46:58.416Z,95.07
2022-11-14T17:49:26.028Z,79.90
2022-11-14T17:51:53.925Z,79.93
2022-11-14T17:54:21.289Z,83.32
2022-11-14T17:56:53.707Z,84.68
2022-11-14T17:59:22.252Z,83.80
2022-11-14T18:01:49.879Z,84.00
2022-11-14T18:04:17.482Z,106.30
2022-11-14T18:06:44.998Z,90.78
2022-11-14T18:09:14.383Z,90.15
2022-11-14T18:11:42.121Z,68.22
2022-11-14T18:14:09.845Z,66.32
2022-11-14T18:17:05.266Z,46.83
2022-11-14T18:19:25.147Z,47.30
2022-11-14T18:21:53.906Z,55.55
2022-11-14T18:24:22.000Z,57.45
2022-11-14T18:26:49.494Z,42.65
2022-11-14T18:29:17.937Z,33.92
2022-11-14T18:31:45.404Z,38.50
2022-11-14T18:34:12.841Z,36.55
2022-11-14T18:36:40.190Z,41.30
2022-11-14T18:39:07.617Z,34.03
2022-11-14T18:41:35.030Z,30.00
2022-11-14T18:44:03.814Z,28.75
2022-11-14T18:46:37.225Z,28.60
2022-11-14T18:49:04.949Z,25.17
2022-11-14T18:51:33.318Z,30.90
2022-11-14T18:54:00.718Z,24.83
2022-11-14T18:56:28.377Z,23.48
2022-11-14T18:58:57.041Z,26.35
2022-11-14T19:01:26.646Z,31.33
2022-11-14T19:03:57.743Z,27.60
2022-11-14T19:09:00.613Z,27.85
2022-11-14T19:11:46.953Z,27.88
2022-11-14T19:14:14.495Z,32.25
2022-11-14T19:16:41.885Z,26.85
2022-11-14T19:19:22.299Z,24.80
2022-11-14T19:21:53.084Z,22.27
2022-11-14T19:24:20.489Z,28.25
2022-11-14T19:26:47.945Z,28.38
2022-11-14T19:29:15.446Z,27.40
2022-11-14T19:31:43.635Z,27.95
2022-11-14T19:34:11.071Z,24.85
2022-11-14T19:36:58.912Z,23.85
2022-11-14T19:39:25.998Z,25.45
2022-11-14T19:41:53.631Z,24.38
2022-11-14T19:44:21.171Z,25.23
2022-11-14T19:46:48.723Z,25.67
2022-11-14T19:49:16.310Z,29.42
2022-11-14T19:51:43.724Z,34.53
2022-11-14T19:54:11.599Z,31.52
2022-11-14T19:56:39.107Z,27.58
2022-11-14T19:59:17.895Z,32.40
2022-11-14T20:02:02.256Z,34.45
2022-11-14T20:04:32.308Z,35.17
2022-11-14T20:07:03.030Z,33.35
2022-11-14T20:09:30.524Z,33.03
2022-11-14T20:11:58.145Z,30.00
2022-11-14T20:14:25.534Z,27.17
2022-11-14T20:16:52.975Z,28.20
2022-11-14T20:19:20.824Z,33.80
2022-11-14T20:21:49.485Z,28.77
2022-11-14T20:24:21.636Z,29.13
2022-11-14T20:26:49.357Z,28.05
2022-11-14T20:29:17.014Z,29.95
2022-11-14T20:31:44.466Z,27.40
2022-11-14T20:34:12.165Z,26.02
2022-11-14T20:37:08.689Z,27.65
2022-11-14T20:39:27.250Z,28.13
2022-11-14T20:41:54.642Z,25.60
2022-11-14T20:44:22.103Z,25.63
2022-11-14T20:46:49.623Z,24.02
2022-11-14T20:49:17.159Z,27.50
2022-11-14T20:51:44.880Z,29.42
2022-11-14T20:54:12.715Z,28.08
2022-11-14T20:56:40.213Z,26.05
2022-11-14T20:59:08.602Z,29.67
2022-11-14T21:01:40.458Z,27.40
2022-11-14T21:04:10.926Z,31.73
2022-11-14T21:06:38.401Z,43.03
2022-11-14T21:09:05.745Z,33.50
2022-11-14T21:11:33.079Z,25.30
2022-11-14T21:14:00.512Z,25.95
2022-11-14T21:16:32.523Z,27.75
2022-11-14T21:19:00.959Z,25.23
2022-11-14T21:21:30.513Z,25.05
2022-11-14T21:23:57.992Z,28.00
2022-11-14T21:26:31.183Z,28.20
2022-11-14T21:29:04.982Z,26.08
2022-11-14T21:31:35.365Z,28.70
2022-11-14T21:34:05.311Z,29.50
2022-11-14T21:36:48.424Z,33.15
2022-11-14T21:39:17.417Z,40.85
2022-11-14T21:41:48.521Z,37.70
2022-11-14T21:46:47.232Z,35.90
2022-11-14T21:49:14.967Z,42.95
2022-11-14T21:51:42.592Z,44.83
2022-11-14T21:54:10.287Z,41.25
2022-11-14T21:56:37.969Z,37.88
2022-11-14T21:59:13.074Z,35.97
2022-11-14T22:02:07.941Z,41.83
2022-11-14T22:04:36.406Z,35.80
2022-11-14T22:07:06.489Z,35.33
2022-11-14T22:09:34.917Z,35.43
2022-11-14T22:12:02.705Z,37.83
2022-11-14T22:14:30.093Z,38.58
2022-11-14T22:16:58.324Z,45.40
2022-11-14T22:19:25.835Z,39.15
2022-11-14T22:21:54.299Z,41.75
2022-11-14T22:24:22.351Z,37.08
2022-11-14T22:26:49.865Z,44.38
2022-11-14T22:29:17.242Z,42.53
2022-11-14T22:31:44.686Z,39.83
2022-11-14T22:34:12.596Z,40.33
2022-11-14T22:36:40.033Z,36.45
2022-11-14T22:39:07.390Z,41.13
2022-11-14T22:41:34.952Z,39.20
2022-11-14T22:44:02.478Z,39.08
2022-11-14T22:46:30.176Z,40.70
2022-11-14T22:48:58.353Z,40.92
2022-11-14T22:51:26.967Z,43.40
2022-11-14T22:53:56.782Z,41.28
2022-11-14T22:56:26.574Z,35.90
2022-11-14T22:58:54.129Z,38.78
2022-11-14T23:01:28.662Z,41.38
2022-11-14T23:03:58.255Z,40.20
2022-11-14T23:06:25.842Z,35.30
2022-11-14T23:08:54.124Z,42.30
2022-11-14T23:11:24.597Z,43.97
2022-11-14T23:13:54.428Z,41.00
2022-11-14T23:16:24.126Z,41.15
2022-11-14T23:18:54.603Z,39.15
2022-11-14T23:21:28.049Z,46.75
2022-11-14T23:24:02.247Z,43.80
2022-11-14T23:26:31.166Z,44.05
2022-11-14T23:28:58.985Z,46.33
2022-11-14T23:31:27.037Z,38.70
2022-11-14T23:33:55.788Z,40.17
2022-11-14T23:36:23.273Z,41.55
2022-11-14T23:38:54.051Z,38.75
2022-11-14T23:41:24.979Z,41.33
2022-11-14T23:43:52.544Z,38.30
2022-11-14T23:46:20.099Z,37.00
2022-11-14T23:48:47.715Z,36.33
2022-11-14T23:51:15.137Z,40.50
2022-11-14T23:53:42.520Z,37.80
2022-11-14T23:56:13.416Z,36.28
